createdAt,value
2022-09-03T00:02:17.240Z,1.93
2022-09-03T00:04:54.242Z,1.90
2022-09-03T00:07:29.511Z,2.00
2022-09-03T00:10:03.169Z,1.97
2022-09-03T00:12:36.882Z,1.80
2022-09-03T00:15:07.689Z,1.90
2022-09-03T00:17:39.204Z,1.90
2022-09-03T00:20:11.485Z,1.87
2022-09-03T00:22:44.665Z,1.97
2022-09-03T00:25:16.341Z,1.93
2022-09-03T00:27:46.595Z,1.90
2022-09-03T00:30:17.360Z,1.80
2022-09-03T00:32:48.862Z,1.87
2022-09-03T00:35:21.775Z,1.90
2022-09-03T00:37:52.322Z,1.83
2022-09-03T00:40:41.315Z,1.60
2022-09-03T00:43:23.012Z,1.80
2022-09-03T00:45:58.248Z,1.60
2022-09-03T00:48:31.664Z,1.87
2022-09-03T00:51:12.698Z,1.90
2022-09-03T00:53:55.161Z,1.80
2022-09-03T00:56:31.250Z,1.80
2022-09-03T00:59:10.991Z,1.83
2022-09-03T01:01:47.318Z,1.87
2022-09-03T01:04:29.248Z,1.60
2022-09-03T01:07:05.865Z,2.00
2022-09-03T01:09:50.075Z,1.80
2022-09-03T01:12:32.709Z,1.80
2022-09-03T01:15:10.079Z,2.00
2022-09-03T01:17:52.615Z,2.00
2022-09-03T01:20:32.578Z,1.60
2022-09-03T01:23:42.334Z,1.80
2022-09-03T01:26:27.799Z,1.80
2022-09-03T01:29:07.537Z,1.97
2022-09-03T01:31:43.789Z,1.77
2022-09-03T01:34:22.213Z,1.80
2022-09-03T01:37:00.129Z,1.53
2022-09-03T01:39:35.783Z,1.70
2022-09-03T01:42:15.874Z,1.83
2022-09-03T01:45:07.448Z,1.50
2022-09-03T01:47:51.443Z,1.80
2022-09-03T01:50:34.694Z,1.97
2022-09-03T01:53:11.518Z,1.70
2022-09-03T01:55:56.082Z,1.90
2022-09-03T01:58:29.301Z,1.60
2022-09-03T02:01:04.569Z,1.73
2022-09-03T02:03:40.837Z,1.70
2022-09-03T02:06:11.206Z,1.80
2022-09-03T02:08:39.362Z,1.57
2022-09-03T02:11:09.700Z,2.07
2022-09-03T02:13:39.621Z,1.77
2022-09-03T02:16:13.983Z,1.90
2022-09-03T02:18:46.053Z,2.00
2022-09-03T02:21:16.211Z,1.73
2022-09-03T02:23:44.318Z,2.13
2022-09-03T02:26:14.154Z,2.00
2022-09-03T02:28:41.985Z,1.77
2022-09-03T02:31:11.116Z,1.73
2022-09-03T02:33:40.600Z,1.77
2022-09-03T02:36:10.718Z,1.90
2022-09-03T02:38:38.516Z,1.80
2022-09-03T02:41:06.523Z,1.90
2022-09-03T02:43:40.845Z,1.90
2022-09-03T02:46:15.445Z,1.90
2022-09-03T02:48:43.289Z,2.03
2022-09-03T02:51:14.359Z,2.07
2022-09-03T02:53:42.701Z,1.80
2022-09-03T02:56:11.087Z,2.27
2022-09-03T02:58:39.084Z,2.23
2022-09-03T03:01:07.327Z,1.80
2022-09-03T03:03:36.448Z,1.90
2022-09-03T03:06:07.096Z,1.80
2022-09-03T03:08:35.221Z,1.60
2022-09-03T03:11:03.007Z,1.90
2022-09-03T03:13:32.742Z,1.70
2022-09-03T03:16:02.425Z,1.87
2022-09-03T03:18:30.619Z,1.90
2022-09-03T03:21:05.317Z,1.90
2022-09-03T03:23:33.339Z,1.47
2022-09-03T03:26:02.516Z,1.87
2022-09-03T03:28:34.011Z,1.70
2022-09-03T03:31:07.592Z,1.77
2022-09-03T03:33:35.884Z,2.00
2022-09-03T03:36:07.980Z,1.70
2022-09-03T03:38:36.105Z,1.77
2022-09-03T03:41:09.062Z,2.07
2022-09-03T03:43:37.043Z,1.73
2022-09-03T03:46:05.299Z,1.90
2022-09-03T03:48:33.906Z,2.17
2022-09-03T03:51:02.313Z,1.73
2022-09-03T03:53:31.412Z,1.77
2022-09-03T03:56:01.440Z,1.70
2022-09-03T03:58:30.069Z,2.20
2022-09-03T04:01:05.659Z,1.70
2022-09-03T04:03:33.437Z,2.00
2022-09-03T04:06:01.758Z,2.00
2022-09-03T04:08:31.661Z,1.90
2022-09-03T04:11:01.619Z,1.70
2022-09-03T04:13:30.737Z,2.20
2022-09-03T04:16:02.169Z,2.33
2022-09-03T04:18:30.946Z,1.97
2022-09-03T04:21:04.227Z,1.97
2022-09-03T04:23:35.493Z,2.20
2022-09-03T04:26:03.233Z,2.07
2022-09-03T04:28:33.136Z,1.93
2022-09-03T04:31:03.237Z,2.23
2022-09-03T04:33:31.869Z,2.27
2022-09-03T04:36:07.936Z,2.10
2022-09-03T04:38:38.763Z,1.83
2022-09-03T04:41:07.485Z,2.13
2022-09-03T04:43:35.587Z,1.87
2022-09-03T04:46:05.039Z,2.20
2022-09-03T04:48:34.410Z,2.10
2022-09-03T04:51:07.953Z,2.10
2022-09-03T04:53:38.939Z,2.20
2022-09-03T04:56:14.223Z,1.83
2022-09-03T04:58:44.365Z,2.20
2022-09-03T05:01:14.114Z,2.00
2022-09-03T05:03:41.871Z,2.13
2022-09-03T05:06:10.824Z,1.83
2022-09-03T05:08:40.383Z,1.73
2022-09-03T05:11:09.237Z,1.90
2022-09-03T05:13:37.553Z,2.07
2022-09-03T05:16:07.358Z,1.90
2022-09-03T05:18:36.206Z,1.77
2022-09-03T05:21:06.380Z,1.70
2022-09-03T05:23:37.872Z,1.40
2022-09-03T05:26:11.077Z,1.67
2022-09-03T05:28:41.986Z,1.90
2022-09-03T05:31:11.854Z,1.97
2022-09-03T05:33:42.107Z,2.00
2022-09-03T05:36:11.975Z,1.90
2022-09-03T05:38:40.005Z,1.50
2022-09-03T05:41:11.152Z,1.70
2022-09-03T05:43:38.929Z,1.73
2022-09-03T05:46:10.130Z,1.60
2022-09-03T05:48:40.265Z,1.57
2022-09-03T05:51:10.956Z,1.80
2022-09-03T05:53:40.121Z,1.80
2022-09-03T05:56:12.145Z,1.60
2022-09-03T05:58:43.489Z,1.70
2022-09-03T06:01:12.845Z,1.67
2022-09-03T06:03:40.798Z,1.63
2022-09-03T06:06:09.155Z,1.70
2022-09-03T06:08:37.747Z,1.70
2022-09-03T06:11:06.486Z,1.98
2022-09-03T06:13:36.319Z,1.80
2022-09-03T06:16:06.412Z,1.50
2022-09-03T06:18:34.573Z,1.80
2022-09-03T06:21:04.759Z,1.63
2022-09-03T06:23:33.592Z,1.73
2022-09-03T06:26:05.275Z,1.92
2022-09-03T06:28:36.038Z,1.80
2022-09-03T06:31:05.444Z,1.70
2022-09-03T06:33:35.105Z,2.03
2022-09-03T06:36:08.682Z,1.95
2022-09-03T06:38:38.194Z,2.15
2022-09-03T06:41:08.123Z,1.90
2022-09-03T06:43:39.068Z,1.83
2022-09-03T06:46:08.818Z,1.60
2022-09-03T06:48:37.812Z,1.90
2022-09-03T06:51:07.436Z,2.05
2022-09-03T06:53:37.136Z,1.75
2022-09-03T06:56:07.700Z,1.90
2022-09-03T06:58:40.490Z,2.05
2022-09-03T07:01:11.095Z,2.00
2022-09-03T07:03:40.226Z,1.80
2022-09-03T07:06:10.257Z,2.10
2022-09-03T07:08:38.153Z,1.90
2022-09-03T07:11:10.295Z,1.98
2022-09-03T07:13:41.185Z,2.10
2022-09-03T07:16:12.169Z,2.30
2022-09-03T07:18:41.032Z,1.80
2022-09-03T07:21:10.656Z,2.00
2022-09-03T07:23:39.815Z,2.20
2022-09-03T07:26:11.244Z,1.90
2022-09-03T07:28:42.361Z,2.20
2022-09-03T07:31:12.675Z,1.92
2022-09-03T07:33:40.953Z,1.80
2022-09-03T07:36:10.260Z,1.95
2022-09-03T07:38:38.320Z,1.67
2022-09-03T07:41:08.250Z,1.95
2022-09-03T07:43:39.377Z,1.85
2022-09-03T07:46:08.868Z,1.98
2022-09-03T07:48:37.733Z,2.05
2022-09-03T07:51:05.608Z,1.90
2022-09-03T07:53:33.956Z,2.25
2022-09-03T07:56:05.768Z,1.70
2022-09-03T07:58:35.088Z,2.20
2022-09-03T08:01:09.000Z,1.83
2022-09-03T08:03:44.408Z,2.15
2022-09-03T08:06:12.671Z,2.00
2022-09-03T08:08:41.182Z,1.63
2022-09-03T08:11:10.763Z,1.90
2022-09-03T08:13:40.810Z,2.00
2022-09-03T08:16:09.502Z,1.70
2022-09-03T08:18:39.218Z,1.98
2022-09-03T08:21:10.681Z,1.90
2022-09-03T08:23:38.875Z,1.70
2022-09-03T08:26:07.784Z,2.00
2022-09-03T08:28:36.305Z,1.88
2022-09-03T08:31:10.133Z,1.85
2022-09-03T08:33:38.507Z,1.50
2022-09-03T08:36:10.552Z,2.05
2022-09-03T08:38:38.406Z,1.60
2022-09-03T08:41:08.596Z,1.60
2022-09-03T08:43:49.234Z,1.60
2022-09-03T08:46:17.762Z,1.60
2022-09-03T08:48:47.492Z,1.60
2022-09-03T08:51:20.140Z,1.63
2022-09-03T08:53:55.140Z,1.50
2022-09-03T08:56:27.785Z,1.50
2022-09-03T08:58:56.141Z,1.65
2022-09-03T09:01:34.225Z,1.70
2022-09-03T09:04:12.839Z,1.60
2022-09-03T09:06:50.193Z,1.70
2022-09-03T09:09:26.706Z,1.52
2022-09-03T09:12:03.975Z,1.33
2022-09-03T09:14:39.652Z,1.50
2022-09-03T09:17:24.756Z,1.27
2022-09-03T09:20:04.593Z,1.73
2022-09-03T09:22:38.319Z,1.60
2022-09-03T09:25:14.197Z,1.30
2022-09-03T09:27:51.915Z,1.70
2022-09-03T09:30:20.545Z,1.70
2022-09-03T09:32:48.519Z,1.75
2022-09-03T09:35:18.489Z,1.73
2022-09-03T09:37:52.371Z,1.60
2022-09-03T09:40:33.064Z,1.50
2022-09-03T09:43:10.578Z,1.70
2022-09-03T09:45:40.765Z,1.40
2022-09-03T09:48:19.972Z,1.67
2022-09-03T09:50:47.821Z,1.60
2022-09-03T09:53:21.638Z,1.67
2022-09-03T09:55:54.580Z,1.42
2022-09-03T09:58:24.014Z,1.65
2022-09-03T10:01:13.068Z,1.40
2022-09-03T10:03:49.572Z,1.65
2022-09-03T10:06:35.660Z,1.35
2022-09-03T10:09:12.737Z,1.33
2022-09-03T10:11:45.174Z,1.35
2022-09-03T10:14:21.322Z,1.50
2022-09-03T10:16:55.773Z,1.60
2022-09-03T10:19:42.344Z,1.40
2022-09-03T10:22:18.860Z,1.40
2022-09-03T10:24:57.653Z,1.45
2022-09-03T10:27:25.783Z,1.73
2022-09-03T10:29:53.692Z,1.35
2022-09-03T10:32:39.285Z,1.30
2022-09-03T10:35:28.506Z,1.20
2022-09-03T10:38:10.015Z,1.23
2022-09-03T10:40:45.679Z,1.42
2022-09-03T10:43:35.584Z,1.40
2022-09-03T10:46:08.386Z,1.35
2022-09-03T10:49:15.350Z,1.48
2022-09-03T10:51:49.594Z,1.60
2022-09-03T10:54:32.437Z,1.33
2022-09-03T10:57:09.481Z,1.27
2022-09-03T10:59:51.325Z,1.45
2022-09-03T11:02:46.395Z,1.40
2022-09-03T11:05:18.452Z,1.80
2022-09-03T11:07:49.813Z,1.52
2022-09-03T11:10:23.018Z,1.30
2022-09-03T11:13:03.698Z,1.38
2022-09-03T11:15:36.646Z,1.48
2022-09-03T11:18:13.683Z,1.20
2022-09-03T11:20:43.052Z,1.38
2022-09-03T11:23:13.350Z,1.38
2022-09-03T11:25:45.736Z,1.45
2022-09-03T11:28:28.417Z,1.65
2022-09-03T11:31:19.499Z,1.90
2022-09-03T11:33:51.524Z,1.35
2022-09-03T11:36:30.977Z,1.40
2022-09-03T11:39:00.485Z,1.55
2022-09-03T11:41:35.895Z,1.50
2022-09-03T11:44:19.031Z,1.40
2022-09-03T11:46:57.503Z,1.42
2022-09-03T11:49:30.240Z,1.60
2022-09-03T11:52:01.878Z,1.33
2022-09-03T11:54:33.921Z,1.42
2022-09-03T11:57:11.660Z,1.40
2022-09-03T11:59:42.810Z,1.50
2022-09-03T12:02:33.603Z,1.30
2022-09-03T12:05:13.989Z,1.55
2022-09-03T12:07:58.186Z,1.10
2022-09-03T12:10:45.264Z,1.30
2022-09-03T12:13:29.950Z,1.60
2022-09-03T12:16:28.123Z,1.50
2022-09-03T12:19:01.680Z,1.67
2022-09-03T12:21:30.679Z,1.27
2022-09-03T12:24:03.445Z,1.40
2022-09-03T12:26:31.264Z,1.23
2022-09-03T12:29:00.791Z,1.42
2022-09-03T12:31:33.045Z,1.50
2022-09-03T12:34:02.663Z,1.70
2022-09-03T12:36:39.589Z,1.60
2022-09-03T12:39:12.432Z,1.40
2022-09-03T12:41:51.069Z,1.77
2022-09-03T12:44:29.595Z,1.60
2022-09-03T12:49:59.775Z,1.60
2022-09-03T12:52:31.296Z,1.85
2022-09-03T12:55:04.403Z,1.63
2022-09-03T12:57:36.470Z,1.70
2022-09-03T13:00:08.740Z,1.70
2022-09-03T13:02:47.896Z,1.40
2022-09-03T13:05:20.964Z,1.55
2022-09-03T13:07:53.024Z,1.98
2022-09-03T13:10:27.398Z,1.90
2022-09-03T13:13:00.917Z,1.83
2022-09-03T13:15:30.019Z,1.75
2022-09-03T13:18:26.321Z,1.80
2022-09-03T13:21:08.255Z,1.90
2022-09-03T13:23:59.283Z,1.60
2022-09-03T13:26:36.881Z,1.75
2022-09-03T13:29:28.851Z,1.95
2022-09-03T13:32:05.821Z,1.70
2022-09-03T13:34:38.787Z,1.95
2022-09-03T13:37:20.416Z,1.85
2022-09-03T13:39:53.079Z,1.65
2022-09-03T13:42:28.466Z,1.80
2022-09-03T13:44:59.815Z,1.88
2022-09-03T13:47:36.074Z,1.85
2022-09-03T13:50:23.293Z,1.60
2022-09-03T13:52:56.851Z,1.77
2022-09-03T13:55:30.052Z,1.90
2022-09-03T13:58:02.167Z,1.70
2022-09-03T14:00:35.527Z,1.60
2022-09-03T14:03:12.051Z,1.48
2022-09-03T14:05:51.700Z,1.75
2022-09-03T14:08:26.625Z,1.80
2022-09-03T14:11:01.413Z,1.90
2022-09-03T14:13:47.603Z,1.90
2022-09-03T14:16:30.715Z,1.90
2022-09-03T14:19:03.915Z,2.00
2022-09-03T14:21:40.938Z,1.98
2022-09-03T14:24:16.004Z,2.17
2022-09-03T14:26:52.822Z,1.67
2022-09-03T14:29:24.573Z,1.70
2022-09-03T14:32:06.428Z,1.67
2022-09-03T14:34:44.698Z,1.88
2022-09-03T14:37:33.129Z,2.00
2022-09-03T14:40:13.471Z,1.85
2022-09-03T14:43:02.166Z,1.95
2022-09-03T14:45:46.654Z,2.10
2022-09-03T14:48:36.877Z,1.88
2022-09-03T14:51:19.992Z,1.88
2022-09-03T14:54:28.605Z,2.15
2022-09-03T14:57:12.734Z,1.90
2022-09-03T14:59:59.631Z,2.13
2022-09-03T15:02:56.689Z,2.00
2022-09-03T15:05:43.347Z,1.70
2022-09-03T15:08:24.066Z,2.08
2022-09-03T15:10:57.017Z,2.38
2022-09-03T15:13:29.740Z,1.95
2022-09-03T15:16:11.952Z,1.88
2022-09-03T15:18:51.093Z,1.60
2022-09-03T15:21:27.052Z,1.70
2022-09-03T15:24:07.480Z,2.08
2022-09-03T15:26:58.449Z,1.88
2022-09-03T15:29:48.390Z,2.20
2022-09-03T15:32:26.654Z,1.95
2022-09-03T15:35:06.923Z,2.10
2022-09-03T15:37:40.709Z,2.20
2022-09-03T15:40:17.267Z,2.17
2022-09-03T15:42:49.105Z,2.25
2022-09-03T15:45:26.885Z,2.33
2022-09-03T15:47:57.648Z,2.35
2022-09-03T15:50:35.681Z,2.05
2022-09-03T15:53:07.935Z,2.20
2022-09-03T15:55:40.630Z,2.13
2022-09-03T15:58:21.924Z,2.50
2022-09-03T16:00:57.163Z,2.10
2022-09-03T16:03:40.015Z,2.13
2022-09-03T16:06:21.749Z,2.05
2022-09-03T16:08:54.562Z,1.95
2022-09-03T16:11:33.676Z,2.20
2022-09-03T16:14:10.366Z,2.00
2022-09-03T16:16:58.221Z,2.10
2022-09-03T16:19:31.681Z,2.40
2022-09-03T16:22:02.378Z,1.92
2022-09-03T16:24:38.481Z,2.13
2022-09-03T16:27:16.201Z,1.95
2022-09-03T16:29:58.015Z,2.65
2022-09-03T16:32:40.414Z,2.40
2022-09-03T16:35:18.385Z,2.42
2022-09-03T16:38:02.924Z,2.17
2022-09-03T16:40:39.470Z,2.13
2022-09-03T16:43:39.608Z,2.53
2022-09-03T16:46:21.475Z,2.25
2022-09-03T16:48:59.998Z,2.15
2022-09-03T16:51:35.439Z,2.08
2022-09-03T16:54:17.103Z,2.70
2022-09-03T16:56:56.839Z,2.38
2022-09-03T16:59:52.560Z,2.40
2022-09-03T17:02:42.253Z,5.45
2022-09-03T17:05:26.628Z,2.45
2022-09-03T17:08:14.560Z,1.98
2022-09-03T17:10:47.585Z,2.28
2022-09-03T17:13:31.712Z,2.40
2022-09-03T17:16:09.544Z,2.20
2022-09-03T17:18:59.340Z,2.35
2022-09-03T17:21:38.323Z,2.20
2022-09-03T17:24:33.591Z,2.40
2022-09-03T17:27:23.404Z,2.33
2022-09-03T17:30:30.770Z,2.03
2022-09-03T17:33:35.103Z,2.42
2022-09-03T17:36:17.462Z,2.38
2022-09-03T17:39:09.200Z,1.88
2022-09-03T17:41:46.711Z,2.20
2022-09-03T17:44:22.637Z,2.30
2022-09-03T17:47:01.888Z,2.40
2022-09-03T17:49:34.920Z,2.10
2022-09-03T17:52:08.245Z,2.30
2022-09-03T17:54:42.840Z,2.38
2022-09-03T17:57:18.842Z,2.47
2022-09-03T17:59:53.228Z,2.50
2022-09-03T18:02:35.864Z,2.22
2022-09-03T18:05:16.952Z,2.20
2022-09-03T18:07:53.258Z,2.20
2022-09-03T18:10:30.346Z,2.10
2022-09-03T18:13:08.286Z,2.50
2022-09-03T18:15:40.612Z,2.30
2022-09-03T18:18:18.263Z,2.58
2022-09-03T18:21:23.307Z,2.55
2022-09-03T18:24:19.467Z,2.25
2022-09-03T18:27:11.577Z,2.60
2022-09-03T18:30:03.472Z,2.33
2022-09-03T18:32:49.346Z,2.25
2022-09-03T18:35:34.773Z,2.00
2022-09-03T18:38:22.341Z,2.22
2022-09-03T18:41:17.760Z,2.10
2022-09-03T18:44:14.258Z,2.33
2022-09-03T18:50:23.428Z,2.20
2022-09-03T18:53:15.362Z,2.17
2022-09-03T18:56:14.715Z,1.90
2022-09-03T18:59:10.916Z,2.42
2022-09-03T19:01:58.600Z,2.20
2022-09-03T19:04:58.967Z,2.63
2022-09-03T19:07:52.964Z,2.70
2022-09-03T19:10:52.338Z,2.55
2022-09-03T19:13:47.311Z,2.45
2022-09-03T19:16:40.554Z,2.55
2022-09-03T19:19:42.119Z,2.47
2022-09-03T19:22:29.070Z,2.60
2022-09-03T19:25:20.564Z,2.90
2022-09-03T19:28:19.213Z,3.15
2022-09-03T19:31:19.411Z,2.45
2022-09-03T19:34:13.579Z,2.42
2022-09-03T19:37:03.625Z,2.70
2022-09-03T19:40:10.624Z,2.53
2022-09-03T19:43:10.362Z,2.63
2022-09-03T19:46:08.940Z,2.53
2022-09-03T19:49:11.737Z,2.97
2022-09-03T19:52:05.883Z,3.22
2022-09-03T19:54:51.836Z,3.45
2022-09-03T19:57:38.759Z,3.67
2022-09-03T20:00:32.585Z,3.65
2022-09-03T20:03:20.691Z,3.95
2022-09-03T20:06:11.215Z,6.47
2022-09-03T20:08:56.928Z,12.52
2022-09-03T20:11:27.664Z,23.23
2022-09-03T20:14:15.698Z,21.65
2022-09-03T20:16:57.910Z,21.75
2022-09-03T20:19:33.630Z,14.52
2022-09-03T20:22:12.279Z,11.25
2022-09-03T20:24:56.532Z,8.68
2022-09-03T20:27:38.461Z,6.35
2022-09-03T20:30:09.173Z,6.90
2022-09-03T20:33:01.176Z,8.43
2022-09-03T20:35:41.420Z,9.48
2022-09-03T20:38:26.166Z,8.43
2022-09-03T20:41:06.504Z,6.93
2022-09-03T20:43:57.887Z,8.45
2022-09-03T20:46:36.823Z,8.88
2022-09-03T20:49:10.121Z,10.90
2022-09-03T20:51:42.794Z,10.43
2022-09-03T20:54:14.972Z,9.48
2022-09-03T20:57:01.773Z,8.20
2022-09-03T20:59:44.465Z,7.00
2022-09-03T21:02:22.363Z,6.07
2022-09-03T21:04:56.509Z,6.22
2022-09-03T21:07:40.136Z,6.93
2022-09-03T21:10:20.476Z,6.38
2022-09-03T21:12:58.385Z,6.13
2022-09-03T21:15:36.302Z,5.38
2022-09-03T21:18:13.371Z,3.90
2022-09-03T21:20:47.719Z,3.65
2022-09-03T21:23:22.857Z,3.63
2022-09-03T21:25:58.484Z,3.50
2022-09-03T21:28:32.333Z,3.83
2022-09-03T21:31:03.664Z,4.05
2022-09-03T21:33:37.685Z,3.28
2022-09-03T21:36:11.089Z,3.17
2022-09-03T21:38:49.029Z,3.13
2022-09-03T21:41:24.051Z,2.80
2022-09-03T21:43:56.425Z,3.55
2022-09-03T21:46:29.139Z,3.15
2022-09-03T21:48:59.590Z,3.17
2022-09-03T21:51:34.685Z,2.83
2022-09-03T21:54:05.915Z,2.88
2022-09-03T21:56:48.561Z,2.70
2022-09-03T21:59:31.335Z,3.17
2022-09-03T22:02:06.178Z,2.88
2022-09-03T22:04:33.990Z,2.95
2022-09-03T22:07:11.356Z,3.17
2022-09-03T22:09:46.556Z,2.92
2022-09-03T22:12:21.221Z,2.75
2022-09-03T22:14:52.986Z,2.90
2022-09-03T22:17:27.305Z,2.95
2022-09-03T22:19:55.064Z,2.60
2022-09-03T22:22:29.343Z,2.80
2022-09-03T22:25:04.832Z,3.05
2022-09-03T22:27:39.593Z,2.72
2022-09-03T22:30:09.713Z,2.85
2022-09-03T22:32:50.955Z,2.60
2022-09-03T22:35:37.106Z,2.95
2022-09-03T22:38:24.807Z,2.80
2022-09-03T22:40:59.694Z,2.58
2022-09-03T22:43:36.567Z,2.78
2022-09-03T22:46:13.108Z,2.70
2022-09-03T22:49:14.978Z,2.83
2022-09-03T22:51:55.695Z,3.33
2022-09-03T22:54:35.859Z,2.85
2022-09-03T22:57:05.552Z,2.88
2022-09-03T22:59:39.043Z,3.20
2022-09-03T23:02:11.849Z,2.75
2022-09-03T23:04:45.902Z,3.30
2022-09-03T23:07:21.397Z,2.60
2022-09-03T23:09:55.521Z,3.33
2022-09-03T23:12:32.031Z,3.20
2022-09-03T23:15:06.781Z,2.95
2022-09-03T23:17:41.459Z,3.45
2022-09-03T23:20:15.232Z,3.30
2022-09-03T23:22:48.092Z,3.70
2022-09-03T23:25:20.470Z,3.97
2022-09-03T23:27:55.828Z,4.00
2022-09-03T23:30:25.252Z,3.88
2022-09-03T23:32:56.886Z,3.60
2022-09-03T23:35:28.483Z,3.55
2022-09-03T23:38:11.331Z,3.92
2022-09-03T23:40:47.369Z,3.58
2022-09-03T23:43:39.166Z,3.80
2022-09-03T23:46:16.084Z,4.15
2022-09-03T23:49:08.033Z,4.63
2022-09-03T23:51:45.104Z,4.35
2022-09-03T23:54:23.325Z,3.83
2022-09-03T23:57:03.753Z,3.35
2022-09-03T23:59:44.602Z,4.18
